Windsor, Indiana
Current Conditions -  °F | °C
As of 8:53 AM on Saturday 01 Nov 2014 (Local Time) from KMIE Reporting Station
Overcast Overcast  
Wind Chill: 21°   Ceiling: 3000
Heat Index: 32°   Visibility: 10mi
Dew Point: 24°   Wind: 17mph
Humidity: 73%   Direction: 10°N
Pressure: 30.29"   Gusts: NA
Location:  40.2107°N, 85.182°W
Report Text: KMIE 011253Z 01015KT 10SM OVC030 00/M04 A3029 RMK AO2 SLP262 T00001044
Loading
Personal Weather Stations






























Interactive Weather Map
Tropical Storm Tracking
New forecast layout! Learn more

10-Day Weather Forecast

Advertisements
Track Severe Weather on mobile